Latest Weather Observations for Broome Port

IDW60801

Issued at 6:33 pm WST Friday 30 January 2015 (issued every 30 minutes, with the page automatically refreshed every 10 minutes)

About weather observations | Map of weather stations | Latest weather observations for WA | Other Formats
Station Details ID: 003102 Name: BROOME NTC AWS Lat: -18.00 Lon: 122.22 Height: 0.0 m
Data from the previous 72 hours. | See also: Recent months for locations in Western Australia
Date/Time
WST
Temp
°C
App
Temp
°C
Dew
Point
Rel
Hum
%
Delta-T
°C
Wind Press
QNH
hPa
Press
MSL
hPa
Rain
since 9 am
mm
Dir
 
Spd
km/h
Gust
km/h
Spd
kts
Gust
kts
30/06:30pm 29.2 - - - - NW 22 28 12 15 1005.3 1005.2 -
30/06:00pm 29.2 - - - - WNW 24 28 13 15 1005.2 1005.1 -
30/05:30pm 29.2 - - - - WNW 24 30 13 16 1005.1 1005.0 -
30/05:00pm 29.4 - - - - WNW 24 28 13 15 1005.1 1005.0 -
30/04:30pm 29.6 - - - - NW 24 30 13 16 1004.9 1004.8 -
30/04:00pm 29.4 - - - - NW 26 32 14 17 1004.7 1004.6 -
30/03:30pm 29.6 - - - - WNW 24 30 13 16 1005.0 1004.9 -
30/03:00pm 29.6 - - - - WNW 24 28 13 15 1005.4 1005.3 -
30/02:30pm 29.6 - - - - WNW 26 32 14 17 1005.4 1005.3 -
30/02:00pm 29.7 - - - - WNW 24 30 13 16 1005.9 1005.8 -
30/01:30pm 29.5 - - - - WNW 24 32 13 17 1006.0 1005.9 -
30/01:00pm 29.4 - - - - NW 20 28 11 15 1006.3 1006.2 -
30/12:30pm 29.4 - - - - WNW 19 24 10 13 1006.9 1006.8 -
30/12:00pm 29.5 - - - - WNW 20 28 11 15 1007.4 1007.3 -
30/11:30am 29.4 - - - - WNW 19 24 10 13 1007.5 1007.4 -
30/11:00am 29.2 - - - - NW 15 24 8 13 1007.6 1007.5 -
30/10:30am 29.1 - - - - WNW 13 19 7 10 1008.1 1008.0 -
30/10:00am 29.7 - - - - E 4 9 2 5 1008.0 1007.9 -
30/09:30am 28.9 - - - - ENE 6 13 3 7 1008.1 1008.0 -
30/09:00am 28.9 - - - - ENE 6 11 3 6 1008.3 1008.2 -
30/08:30am 28.5 - - - - E 2 6 1 3 1008.3 1008.2 -
30/08:00am 27.1 - - - - WSW 11 15 6 8 1008.1 1008.0 -
30/07:30am 26.7 - - - - SSW 26 32 14 17 1007.8 1007.7 -
30/07:10am 27.9 - - - - WSW 17 37 9 20 1007.8 1007.7 -
30/07:00am 29.5 - - - - W 9 17 5 9 1007.6 1007.5 -
30/06:30am 28.9 - - - - WNW 9 15 5 8 1007.2 1007.1 -
30/06:00am 28.9 - - - - WNW 11 17 6 9 1006.9 1006.8 -
30/05:30am 28.8 - - - - W 11 15 6 8 1006.7 1006.6 -
30/05:00am 28.8 - - - - W 15 19 8 10 1006.5 1006.4 -
30/04:30am 28.8 - - - - W 17 22 9 12 1006.4 1006.3 -
30/04:00am 28.8 - - - - W 19 24 10 13 1006.2 1006.1 -
30/03:30am 28.7 - - - - W 17 22 9 12 1006.0 1005.9 -
30/03:00am 28.7 - - - - WNW 20 24 11 13 1005.7 1005.6 -
30/02:30am 28.7 - - - - WNW 20 30 11 16 1005.4 1005.3 -
30/02:00am 28.7 - - - - WNW 22 28 12 15 1005.5 1005.4 -
30/01:30am 28.7 - - - - WNW 20 26 11 14 1005.7 1005.6 -
30/01:00am 28.7 - - - - NW 19 26 10 14 1005.9 1005.8 -
30/12:30am 28.8 - - - - WNW 19 24 10 13 1006.5 1006.4 -
30/12:00am 28.8 - - - - NW 20 28 11 15 1006.3 1006.2 -
 
Date/Time
WST
Temp
°C
App
Temp
°C
Dew
Point
Rel
Hum
%
Delta-T
°C
Wind Press
QNH
hPa
Press
MSL
hPa
Rain
since 9 am
mm
Dir
 
Spd
km/h
Gust
km/h
Spd
kts
Gust
kts
29/11:30pm 28.8 - - - - NW 20 26 11 14 1006.3 1006.2 -
29/11:00pm 28.9 - - - - WNW 20 28 11 15 1006.4 1006.3 -
29/10:30pm 28.9 - - - - NW 17 22 9 12 1006.6 1006.5 -
29/10:00pm 28.9 - - - - NW 13 19 7 10 1006.4 1006.3 -
29/09:30pm 28.9 - - - - WNW 17 20 9 11 1006.1 1006.0 -
29/09:00pm 28.9 - - - - NW 19 22 10 12 1005.9 1005.8 -
29/08:30pm 28.9 - - - - NW 13 17 7 9 1006.1 1006.0 -
29/08:00pm 29.0 - - - - NW 15 19 8 10 1006.0 1005.9 -
29/07:30pm 28.9 - - - - WNW 15 19 8 10 1005.7 1005.6 -
29/07:00pm 29.0 - - - - NW 19 24 10 13 1005.3 1005.2 -
29/06:30pm 29.1 - - - - WNW 22 28 12 15 1004.7 1004.6 -
29/06:00pm 29.2 - - - - WNW 22 28 12 15 1004.3 1004.2 -
29/05:30pm 29.3 - - - - WNW 22 30 12 16 1004.0 1003.9 -
29/05:00pm 29.3 - - - - WNW 24 30 13 16 1004.0 1003.9 -
29/04:30pm 29.2 - - - - WNW 22 28 12 15 1003.9 1003.8 -
29/04:00pm 29.3 - - - - WNW 22 28 12 15 1004.0 1003.9 -
29/03:30pm 29.0 - - - - WNW 20 28 11 15 1004.0 1003.9 -
29/03:00pm 29.0 - - - - WNW 20 26 11 14 1004.2 1004.1 -
29/02:30pm 28.7 - - - - WNW 20 28 11 15 1004.5 1004.4 -
29/02:00pm 28.7 - - - - WNW 20 28 11 15 1004.6 1004.5 -
29/01:30pm 28.6 - - - - WNW 20 28 11 15 1004.7 1004.6 -
29/01:00pm 28.6 - - - - WNW 20 30 11 16 1004.9 1004.8 -
29/12:30pm 28.6 - - - - WNW 20 28 11 15 1005.1 1005.0 -
29/12:00pm 28.9 - - - - NW 20 26 11 14 1005.4 1005.3 -
29/11:30am 28.7 - - - - NW 20 28 11 15 1005.7 1005.6 -
29/11:00am 28.6 - - - - WNW 20 26 11 14 1006.1 1006.0 -
29/10:30am 28.7 - - - - NW 17 20 9 11 1006.3 1006.2 -
29/10:00am 28.9 - - - - NW 15 22 8 12 1006.7 1006.6 -
29/09:30am 29.7 - - - - WSW 2 4 1 2 1007.1 1007.0 -
29/09:00am 28.4 - - - - NNE 6 9 3 5 1007.2 1007.1 -
29/08:30am 27.1 - - - - NE 9 13 5 7 1007.1 1007.0 -
29/08:00am 26.6 - - - - ENE 15 20 8 11 1007.6 1007.5 -
29/07:30am 25.4 - - - - ENE 20 28 11 15 1007.5 1007.4 -
29/07:00am 24.1 - - - - ENE 20 26 11 14 1007.8 1007.7 -
29/06:30am 23.8 - - - - E 24 30 13 16 1007.6 1007.5 -
29/06:00am 23.9 - - - - E 32 37 17 20 1007.5 1007.4 -
29/05:30am 23.5 - - - - E 43 50 23 27 1007.1 1007.0 -
29/05:00am 23.9 - - - - E 52 57 28 31 1006.6 1006.5 -
29/04:50am 24.5 - - - - ESE 37 59 20 32 1006.4 1006.3 -
29/04:47am 24.9 - - - - SE 24 57 13 31 1006.6 1006.5 -
29/04:44am 25.3 - - - - SSE 13 41 7 22 1006.7 1006.6 -
29/04:30am 28.7 - - - - SW 6 7 3 4 1006.1 1006.0 -
29/04:00am 28.6 - - - - W 9 15 5 8 1005.7 1005.6 -
29/03:30am 28.5 - - - - WNW 17 20 9 11 1004.5 1004.4 -
29/03:00am 28.4 - - - - WNW 20 28 11 15 1004.2 1004.1 -
29/02:30am 28.4 - - - - WNW 24 32 13 17 1004.0 1003.9 -
29/02:00am 28.5 - - - - WNW 24 28 13 15 1004.2 1004.1 -
29/01:30am 28.5 - - - - WNW 22 28 12 15 1004.4 1004.3 -
29/01:00am 28.5 - - - - WNW 20 26 11 14 1004.4 1004.3 -
29/12:30am 28.6 - - - - WNW 24 30 13 16 1004.5 1004.4 -
29/12:00am 28.8 - - - - WNW 24 30 13 16 1004.9 1004.8 -
 
Date/Time
WST
Temp
°C
App
Temp
°C
Dew
Point
Rel
Hum
%
Delta-T
°C
Wind Press
QNH
hPa
Press
MSL
hPa
Rain
since 9 am
mm
Dir
 
Spd
km/h
Gust
km/h
Spd
kts
Gust
kts
28/11:30pm 28.8 - - - - WNW 22 28 12 15 1005.2 1005.1 -
28/11:00pm 28.9 - - - - WNW 20 28 11 15 1005.4 1005.3 -
28/10:30pm 29.0 - - - - WNW 20 26 11 14 1005.7 1005.6 -
28/10:00pm 29.0 - - - - WNW 20 26 11 14 1005.8 1005.7 -
28/09:30pm 29.0 - - - - WNW 20 28 11 15 1005.7 1005.6 -
28/09:00pm 29.1 - - - - W 20 28 11 15 1005.4 1005.3 -
28/08:30pm 29.1 - - - - W 22 28 12 15 1005.1 1005.0 -
28/08:00pm 29.2 - - - - W 22 28 12 15 1004.8 1004.7 -
28/07:30pm 29.2 - - - - WNW 22 30 12 16 1004.4 1004.3 -
28/07:00pm 29.2 - - - - WNW 28 33 15 18 1003.9 1003.8 -
28/06:30pm 29.3 - - - - W 28 32 15 17 1003.6 1003.5 -
28/06:00pm 29.5 - - - - W 26 33 14 18 1003.4 1003.3 -
28/05:30pm 29.4 - - - - W 26 32 14 17 1003.2 1003.1 -
28/05:00pm 29.7 - - - - W 26 33 14 18 1003.0 1002.9 -
28/04:30pm 29.9 - - - - W 26 32 14 17 1002.9 1002.8 -
28/04:00pm 29.7 - - - - WNW 28 33 15 18 1002.9 1002.8 -
28/03:30pm 29.7 - - - - W 28 33 15 18 1002.9 1002.8 -
28/03:00pm 29.9 - - - - WNW 26 33 14 18 1003.1 1003.0 -
28/02:30pm 29.9 - - - - W 26 35 14 19 1003.4 1003.3 -
28/02:00pm 29.8 - - - - W 26 33 14 18 1003.9 1003.8 -
28/01:30pm 29.9 - - - - W 26 33 14 18 1004.1 1004.0 -
28/01:00pm 29.6 - - - - W 24 30 13 16 1004.4 1004.3 -
28/12:30pm 29.7 - - - - WSW 22 26 12 14 1004.9 1004.8 -
28/12:00pm 29.7 - - - - W 22 26 12 14 1005.2 1005.1 -
28/11:30am 29.8 - - - - WSW 22 26 12 14 1005.7 1005.6 -
28/11:00am 29.7 - - - - WSW 22 28 12 15 1005.9 1005.8 -
28/10:30am 29.7 - - - - W 20 26 11 14 1006.2 1006.1 -
28/10:00am 29.7 - - - - WSW 19 22 10 12 1006.4 1006.3 -
28/09:30am 29.7 - - - - W 19 24 10 13 1006.7 1006.6 -
28/09:00am 29.7 - - - - WSW 17 22 9 12 1006.7 1006.6 -
28/08:30am 29.6 - - - - WSW 17 20 9 11 1006.8 1006.7 -
28/08:00am 29.4 - - - - WSW 19 24 10 13 1006.8 1006.7 -
28/07:30am 29.5 - - - - WSW 19 22 10 12 1006.7 1006.6 -
28/07:00am 29.2 - - - - W 20 24 11 13 1006.5 1006.4 -
28/06:30am 29.1 - - - - W 17 20 9 11 1006.1 1006.0 -
28/06:00am 29.0 - - - - WNW 17 19 9 10 1005.5 1005.4 -
28/05:30am 28.9 - - - - WNW 17 20 9 11 1005.1 1005.0 -
28/05:00am 29.0 - - - - WNW 17 22 9 12 1004.5 1004.4 -
28/04:30am 29.0 - - - - WNW 19 22 10 12 1004.4 1004.3 -
28/04:00am 28.9 - - - - WNW 19 22 10 12 1004.5 1004.4 -
28/03:30am 28.9 - - - - WNW 17 22 9 12 1004.4 1004.3 -
28/03:00am 29.0 - - - - WNW 17 20 9 11 1004.2 1004.1 -
28/02:30am 28.3 - - - - NW 7 9 4 5 1004.2 1004.1 -
28/02:00am 27.9 - - - - NNW 7 11 4 6 1004.3 1004.2 -
28/01:30am 27.5 - - - - N 9 11 5 6 1004.5 1004.4 -
28/01:00am 27.5 - - - - N 13 15 7 8 1004.7 1004.6 -
28/12:30am 27.5 - - - - N 15 19 8 10 1004.8 1004.7 -
28/12:00am 27.5 - - - - NNE 7 9 4 5 1005.4 1005.3 -
 
Date/Time
WST
Temp
°C
App
Temp
°C
Dew
Point
Rel
Hum
%
Delta-T
°C
Wind Press
QNH
hPa
Press
MSL
hPa
Rain
since 9 am
mm
Dir
 
Spd
km/h
Gust
km/h
Spd
kts
Gust
kts
27/11:30pm 27.3 - - - - NNE 9 11 5 6 1005.6 1005.5 -
27/11:00pm 27.5 - - - - NE 9 13 5 7 1005.9 1005.8 -
27/10:30pm 27.6 - - - - NNE 13 17 7 9 1006.0 1005.9 -
27/10:00pm 27.3 - - - - NE 11 15 6 8 1006.2 1006.1 -
27/09:30pm 27.9 - - - - NE 13 15 7 8 1006.2 1006.1 -
27/09:00pm 28.6 - - - - NE 11 15 6 8 1006.2 1006.1 -
27/08:30pm 29.0 - - - - ENE 15 20 8 11 1006.2 1006.1 -
27/08:00pm 29.4 - - - - NNW 4 7 2 4 1005.8 1005.7 -
27/07:30pm 29.3 - - - - NNW 11 13 6 7 1005.3 1005.2 -
27/07:00pm 29.3 - - - - NNW 13 19 7 10 1004.9 1004.8 -

Other Formats:

Comma delimited format used in spreadsheet applications
http://www.bom.gov.au/fwo/IDW60801/IDW60801.95202.axf

JavaScript Object Notation format (JSON) in row-major order
http://www.bom.gov.au/fwo/IDW60801/IDW60801.95202.json